createdAt,value
2023-01-15T00:00:18.983Z,67.58
2023-01-15T00:02:45.423Z,68.76
2023-01-15T00:05:11.950Z,69.15
2023-01-15T00:07:38.536Z,67.81
2023-01-15T00:10:05.416Z,68.65
2023-01-15T00:12:31.855Z,68.88
2023-01-15T00:14:58.407Z,68.61
2023-01-15T00:17:25.000Z,68.90
2023-01-15T00:19:51.484Z,67.25
2023-01-15T00:22:17.851Z,66.50
2023-01-15T00:25:02.837Z,66.68
2023-01-15T00:27:41.003Z,67.34
2023-01-15T00:30:11.405Z,65.70
2023-01-15T00:32:38.297Z,66.40
2023-01-15T00:35:05.306Z,65.01
2023-01-15T00:37:31.700Z,64.33
2023-01-15T00:39:58.170Z,64.06
2023-01-15T00:42:24.630Z,63.33
2023-01-15T00:44:51.072Z,64.73
2023-01-15T00:47:17.517Z,64.78
2023-01-15T00:49:45.350Z,64.52
2023-01-15T00:52:12.386Z,65.28
2023-01-15T00:54:38.873Z,65.31
2023-01-15T00:57:05.265Z,66.64
2023-01-15T00:59:31.696Z,66.78
2023-01-15T01:01:58.336Z,68.58
2023-01-15T01:04:24.814Z,67.52
2023-01-15T01:06:51.285Z,67.37
2023-01-15T01:09:17.931Z,67.46
2023-01-15T01:11:44.611Z,67.34
2023-01-15T01:14:12.001Z,67.58
2023-01-15T01:16:40.388Z,67.99
2023-01-15T01:19:10.651Z,68.78
2023-01-15T01:21:38.731Z,68.79
2023-01-15T01:24:06.802Z,69.04
2023-01-15T01:26:33.419Z,69.92
2023-01-15T01:28:59.804Z,69.92
2023-01-15T01:31:27.058Z,69.66
2023-01-15T01:33:56.235Z,69.20
2023-01-15T01:36:31.695Z,67.86
2023-01-15T01:38:58.784Z,67.86
2023-01-15T01:41:25.700Z,68.43
2023-01-15T01:43:59.520Z,68.69
2023-01-15T01:46:27.696Z,69.96
2023-01-15T01:49:00.847Z,70.71
2023-01-15T01:51:32.028Z,69.00
2023-01-15T01:54:00.378Z,69.57
2023-01-15T01:56:27.463Z,68.98
2023-01-15T01:58:55.696Z,70.45
2023-01-15T02:01:24.851Z,69.58
2023-01-15T02:03:52.897Z,69.50
2023-01-15T02:06:19.471Z,70.32
2023-01-15T02:08:45.890Z,70.08
2023-01-15T02:11:20.281Z,68.63
2023-01-15T02:14:03.095Z,66.92
2023-01-15T02:16:57.103Z,68.50
2023-01-15T02:19:41.738Z,66.76
2023-01-15T02:22:42.990Z,65.38
2023-01-15T02:25:45.070Z,68.06
2023-01-15T02:28:18.733Z,68.44
2023-01-15T02:30:49.996Z,68.38
2023-01-15T02:33:24.248Z,67.29
2023-01-15T02:35:57.910Z,67.07
2023-01-15T02:38:28.385Z,66.06
2023-01-15T02:40:59.144Z,66.94
2023-01-15T02:43:28.826Z,67.39
2023-01-15T02:45:58.607Z,68.30
2023-01-15T02:48:28.068Z,67.59
2023-01-15T02:51:18.368Z,69.78
2023-01-15T02:53:49.582Z,67.83
2023-01-15T02:56:20.876Z,68.16
2023-01-15T02:58:50.052Z,66.86
2023-01-15T03:01:25.054Z,67.53
2023-01-15T03:04:12.836Z,69.55
2023-01-15T03:06:46.771Z,69.20
2023-01-15T03:09:16.010Z,68.38
2023-01-15T03:12:05.913Z,67.93
2023-01-15T03:14:42.028Z,69.85
2023-01-15T03:17:18.811Z,68.17
2023-01-15T03:19:50.348Z,69.98
2023-01-15T03:22:32.295Z,68.53
2023-01-15T03:25:13.573Z,69.49
2023-01-15T03:27:40.243Z,69.95
2023-01-15T03:30:16.467Z,69.94
2023-01-15T03:32:43.201Z,68.26
2023-01-15T03:35:58.900Z,67.88
2023-01-15T03:38:28.953Z,70.59
2023-01-15T03:41:24.869Z,69.81
2023-01-15T03:44:08.884Z,71.72
2023-01-15T03:47:12.828Z,70.96
2023-01-15T03:49:53.677Z,70.90
2023-01-15T03:52:29.551Z,71.57
2023-01-15T03:55:05.060Z,72.88
2023-01-15T03:57:43.427Z,72.46
2023-01-15T04:00:25.872Z,71.21
2023-01-15T04:02:54.440Z,70.98
2023-01-15T04:05:21.906Z,71.14
2023-01-15T04:07:50.222Z,72.09
2023-01-15T04:10:16.960Z,73.80
2023-01-15T04:12:43.367Z,73.16
2023-01-15T04:15:11.769Z,70.65
2023-01-15T04:17:38.520Z,70.15
2023-01-15T04:20:07.332Z,68.97
2023-01-15T04:22:33.770Z,69.64
2023-01-15T04:25:00.262Z,70.26
2023-01-15T04:27:27.313Z,69.50
2023-01-15T04:29:53.878Z,68.71
2023-01-15T04:32:20.385Z,69.14
2023-01-15T04:34:47.018Z,70.32
2023-01-15T04:37:14.693Z,69.66
2023-01-15T04:39:41.095Z,69.42
2023-01-15T04:42:31.156Z,68.92
2023-01-15T04:44:57.751Z,68.97
2023-01-15T04:47:24.891Z,68.17
2023-01-15T04:49:51.327Z,69.08
2023-01-15T04:52:17.791Z,68.52
2023-01-15T04:54:44.215Z,67.85
2023-01-15T04:57:11.706Z,68.44
2023-01-15T04:59:38.152Z,68.81
2023-01-15T05:02:06.668Z,67.33
2023-01-15T05:04:33.960Z,66.52
2023-01-15T05:07:02.726Z,67.62
2023-01-15T05:09:29.240Z,68.88
2023-01-15T05:11:55.648Z,67.43
2023-01-15T05:14:22.053Z,66.71
2023-01-15T05:16:48.468Z,66.93
2023-01-15T05:19:14.886Z,66.66
2023-01-15T05:21:43.701Z,66.19
2023-01-15T05:24:14.150Z,66.20
2023-01-15T05:26:41.386Z,67.08
2023-01-15T05:29:07.880Z,67.27
2023-01-15T05:31:34.271Z,66.18
2023-01-15T05:34:00.964Z,65.70
2023-01-15T05:36:31.798Z,64.74
2023-01-15T05:39:01.661Z,64.59
2023-01-15T05:41:48.082Z,64.39
2023-01-15T05:44:16.195Z,64.99
2023-01-15T05:46:43.990Z,64.76
2023-01-15T05:49:14.087Z,66.80
2023-01-15T05:51:41.341Z,66.54
2023-01-15T05:54:11.032Z,66.14
2023-01-15T05:56:38.544Z,67.52
2023-01-15T05:59:06.648Z,66.35
2023-01-15T06:01:33.489Z,68.16
2023-01-15T06:04:01.365Z,68.79
2023-01-15T06:06:28.336Z,69.77
2023-01-15T06:08:55.088Z,71.45
2023-01-15T06:11:21.760Z,66.65
2023-01-15T06:13:48.224Z,67.44
2023-01-15T06:16:14.665Z,68.51
2023-01-15T06:18:41.902Z,71.74
2023-01-15T06:21:11.604Z,71.66
2023-01-15T06:23:39.246Z,73.38
2023-01-15T06:26:14.390Z,73.42
2023-01-15T06:28:41.588Z,72.63
2023-01-15T06:31:10.310Z,77.23
2023-01-15T06:33:37.057Z,75.02
2023-01-15T06:36:05.397Z,73.84
2023-01-15T06:38:31.968Z,73.26
2023-01-15T06:41:00.181Z,73.84
2023-01-15T06:43:45.273Z,73.66
2023-01-15T06:46:31.076Z,74.65
2023-01-15T06:48:57.569Z,73.56
2023-01-15T06:51:24.778Z,73.65
2023-01-15T06:53:51.269Z,73.66
2023-01-15T06:56:17.696Z,75.79
2023-01-15T06:58:44.405Z,75.46
2023-01-15T07:01:13.709Z,74.80
2023-01-15T07:03:40.595Z,74.05
2023-01-15T07:06:09.191Z,73.67
2023-01-15T07:08:36.513Z,73.12
2023-01-15T07:11:04.421Z,73.83
2023-01-15T07:13:31.120Z,76.46
2023-01-15T07:15:59.765Z,76.25
2023-01-15T07:18:28.057Z,75.13
2023-01-15T07:21:01.554Z,78.23
2023-01-15T07:23:28.223Z,76.20
2023-01-15T07:25:55.884Z,76.50
2023-01-15T07:28:23.473Z,76.49
2023-01-15T07:30:49.944Z,77.54
2023-01-15T07:33:16.361Z,77.34
2023-01-15T07:35:42.848Z,77.28
2023-01-15T07:38:09.282Z,76.54
2023-01-15T07:40:35.771Z,75.25
2023-01-15T07:43:20.679Z,75.49
2023-01-15T07:46:05.556Z,75.89
2023-01-15T07:48:50.521Z,74.86
2023-01-15T07:51:16.927Z,74.29
2023-01-15T07:53:43.446Z,73.78
2023-01-15T07:56:10.902Z,74.44
2023-01-15T07:58:37.397Z,74.92
2023-01-15T08:01:03.924Z,76.93
2023-01-15T08:03:30.371Z,76.21
2023-01-15T08:05:57.087Z,76.67
2023-01-15T08:08:23.602Z,75.79
2023-01-15T08:11:08.380Z,74.89
2023-01-15T08:13:53.233Z,75.38
2023-01-15T08:16:19.681Z,73.80
2023-01-15T09:13:04.419Z,73.41
2023-01-15T09:15:32.812Z,73.75
2023-01-15T09:17:59.282Z,72.38
2023-01-15T09:20:25.962Z,73.99
2023-01-15T09:22:52.925Z,73.65
2023-01-15T09:25:20.120Z,73.13
2023-01-15T09:27:46.804Z,72.06
2023-01-15T09:30:17.633Z,72.52
2023-01-15T09:32:44.039Z,71.33
2023-01-15T09:35:10.611Z,72.07
2023-01-15T09:37:37.075Z,72.17
2023-01-15T09:40:06.378Z,71.57
2023-01-15T09:42:56.315Z,70.69
2023-01-15T09:45:30.361Z,73.25
2023-01-15T09:48:16.787Z,74.21
2023-01-15T09:50:52.165Z,74.41
2023-01-15T09:54:13.054Z,76.47
2023-01-15T09:56:39.676Z,75.14
2023-01-15T09:59:18.509Z,75.52
2023-01-15T10:01:45.184Z,74.86
2023-01-15T10:04:29.191Z,73.65
2023-01-15T10:07:11.061Z,74.42
2023-01-15T10:09:40.497Z,75.66
2023-01-15T10:12:35.715Z,76.40
2023-01-15T10:15:21.373Z,76.49
2023-01-15T10:17:50.115Z,75.16
2023-01-15T10:20:17.531Z,74.57
2023-01-15T10:23:08.223Z,77.95
2023-01-15T10:25:50.484Z,76.31
2023-01-15T10:28:30.552Z,75.93
2023-01-15T10:31:09.201Z,77.02
2023-01-15T10:33:44.798Z,76.61
2023-01-15T10:36:18.867Z,74.05
2023-01-15T10:38:50.053Z,73.89
2023-01-15T10:41:35.073Z,76.41
2023-01-15T10:44:04.474Z,75.23
2023-01-15T10:46:38.182Z,77.39
2023-01-15T10:49:11.232Z,79.38
2023-01-15T10:51:43.227Z,78.96
2023-01-15T10:54:27.935Z,76.08
2023-01-15T10:57:21.119Z,78.30
2023-01-15T10:59:58.624Z,79.39
2023-01-15T11:02:30.275Z,78.94
2023-01-15T11:04:56.829Z,78.64
2023-01-15T11:07:43.868Z,78.07
2023-01-15T11:10:20.073Z,76.85
2023-01-15T11:13:14.839Z,75.75
2023-01-15T11:16:04.860Z,77.38
2023-01-15T11:18:54.194Z,76.32
2023-01-15T11:21:23.521Z,77.95
2023-01-15T11:23:51.186Z,77.63
2023-01-15T11:26:22.667Z,78.21
2023-01-15T11:28:49.921Z,77.43
2023-01-15T11:31:17.246Z,76.27
2023-01-15T11:33:55.404Z,73.67
2023-01-15T11:36:24.560Z,74.90
2023-01-15T11:38:52.049Z,76.05
2023-01-15T11:41:21.945Z,77.09
2023-01-15T11:44:16.075Z,76.41
2023-01-15T11:47:04.080Z,77.82
2023-01-15T11:49:49.044Z,76.99
2023-01-15T11:52:26.221Z,76.49
2023-01-15T11:54:54.998Z,79.99
2023-01-15T11:57:27.877Z,80.82
2023-01-15T11:59:54.972Z,78.26
2023-01-15T12:02:52.679Z,79.25
2023-01-15T12:05:22.328Z,75.53
2023-01-15T12:07:52.662Z,74.55
2023-01-15T12:10:43.965Z,74.67
2023-01-15T12:13:48.545Z,75.89
2023-01-15T12:16:33.038Z,75.89
2023-01-15T12:19:05.287Z,77.38
2023-01-15T12:25:47.499Z,75.48
2023-01-15T12:28:25.443Z,73.72
2023-01-15T12:31:06.652Z,73.40
2023-01-15T12:33:40.969Z,74.47
2023-01-15T12:36:18.624Z,75.18
2023-01-15T12:38:50.166Z,76.21
2023-01-15T12:41:23.825Z,75.38
2023-01-15T12:44:14.845Z,74.67
2023-01-15T12:46:44.445Z,76.24
2023-01-15T12:49:34.314Z,74.93
2023-01-15T12:52:34.119Z,73.65
2023-01-15T12:55:14.397Z,75.98
2023-01-15T12:57:45.794Z,75.00
2023-01-15T13:00:29.360Z,75.98
2023-01-15T13:03:10.832Z,75.75
2023-01-15T13:05:47.806Z,75.49
2023-01-15T13:08:29.418Z,74.09
2023-01-15T13:10:56.455Z,74.34
2023-01-15T13:13:32.717Z,74.74
2023-01-15T13:16:14.163Z,75.17
2023-01-15T13:18:44.161Z,72.77
2023-01-15T13:21:16.717Z,72.33
2023-01-15T13:23:51.822Z,71.70
2023-01-15T13:26:33.451Z,71.46
2023-01-15T13:29:26.145Z,70.72
2023-01-15T13:31:58.688Z,70.25
2023-01-15T13:34:33.283Z,70.16
2023-01-15T13:37:09.996Z,70.35
2023-01-15T13:39:42.147Z,72.60
2023-01-15T13:42:32.358Z,72.41
2023-01-15T13:45:30.202Z,72.20
2023-01-15T13:48:04.306Z,70.30
2023-01-15T13:50:33.272Z,72.49
2023-01-15T13:53:03.744Z,71.70
2023-01-15T13:55:34.441Z,71.92
2023-01-15T13:58:00.912Z,71.67
2023-01-15T14:00:33.057Z,71.01
2023-01-15T14:03:22.997Z,72.29
2023-01-15T14:06:01.662Z,70.93
2023-01-15T14:08:37.253Z,71.51
2023-01-15T14:11:03.893Z,69.84
2023-01-15T14:13:42.714Z,70.56
2023-01-15T14:16:21.108Z,69.88
2023-01-15T14:19:05.922Z,71.10
2023-01-15T14:21:58.381Z,70.76
2023-01-15T14:24:47.225Z,71.69
2023-01-15T14:27:19.010Z,72.35
2023-01-15T14:30:06.760Z,72.25
2023-01-15T14:32:50.409Z,72.36
2023-01-15T14:35:24.713Z,71.52
2023-01-15T14:38:07.245Z,71.00
2023-01-15T14:40:35.341Z,71.05
2023-01-15T14:43:10.288Z,72.87
2023-01-15T14:45:39.013Z,70.43
2023-01-15T14:48:12.424Z,70.49
2023-01-15T14:50:42.004Z,73.03
2023-01-15T14:53:11.201Z,71.38
2023-01-15T14:55:49.606Z,70.71
2023-01-15T14:58:43.498Z,70.21
2023-01-15T15:01:42.185Z,70.65
2023-01-15T15:04:20.949Z,69.07
2023-01-15T15:06:53.962Z,68.96
2023-01-15T15:09:43.976Z,70.10
2023-01-15T15:12:38.723Z,67.49
2023-01-15T15:15:25.447Z,68.64
2023-01-15T15:18:06.100Z,68.42
2023-01-15T15:20:47.722Z,67.75
2023-01-15T15:23:53.805Z,68.41
2023-01-15T15:26:34.764Z,69.29
2023-01-15T15:29:15.625Z,69.17
2023-01-15T15:32:02.456Z,69.36
2023-01-15T15:34:38.026Z,68.51
2023-01-15T15:37:26.656Z,68.01
2023-01-15T15:40:25.612Z,68.96
2023-01-15T15:43:58.659Z,68.19
2023-01-15T15:46:48.985Z,70.43
2023-01-15T15:49:15.895Z,68.61
2023-01-15T15:51:53.807Z,69.05
2023-01-15T15:54:28.410Z,67.16
2023-01-15T15:57:18.421Z,68.81
2023-01-15T15:59:52.564Z,68.49
2023-01-15T16:02:36.377Z,67.65
2023-01-15T16:05:19.246Z,68.71
2023-01-15T16:07:46.151Z,66.14
2023-01-15T16:10:26.506Z,66.08
2023-01-15T16:12:55.040Z,66.74
2023-01-15T16:15:31.305Z,67.79
2023-01-15T16:17:59.331Z,67.64
2023-01-15T16:20:26.287Z,68.60
2023-01-15T16:23:01.559Z,68.57
2023-01-15T16:25:41.617Z,69.35
2023-01-15T16:28:24.643Z,68.26
2023-01-15T16:30:59.413Z,68.20
2023-01-15T16:33:27.064Z,67.83
2023-01-15T16:35:58.363Z,66.12
2023-01-15T16:38:25.888Z,68.01
2023-01-15T16:41:27.752Z,67.29
2023-01-15T16:44:06.824Z,66.67
2023-01-15T16:46:55.528Z,66.80
2023-01-15T16:49:22.638Z,66.83
2023-01-15T16:51:53.641Z,67.99
2023-01-15T16:54:29.088Z,68.67
2023-01-15T16:57:04.335Z,67.51
2023-01-15T17:02:21.959Z,67.19
2023-01-15T17:04:51.384Z,67.92
2023-01-15T17:07:24.577Z,66.70
2023-01-15T17:09:53.999Z,67.81
2023-01-15T17:12:39.841Z,68.03
2023-01-15T17:15:15.430Z,67.60
2023-01-15T17:17:43.098Z,67.20
2023-01-15T17:20:10.938Z,66.93
2023-01-15T17:22:37.680Z,66.72
2023-01-15T17:25:22.799Z,68.53
2023-01-15T17:27:49.639Z,68.55
2023-01-15T17:30:16.680Z,67.93
2023-01-15T17:32:43.412Z,67.73
2023-01-15T17:35:23.498Z,68.34
2023-01-15T17:37:49.995Z,66.74
2023-01-15T17:40:17.093Z,66.83
2023-01-15T17:42:43.632Z,68.17
2023-01-15T17:45:18.422Z,67.91
2023-01-15T17:47:44.954Z,68.27
2023-01-15T17:50:12.595Z,67.98
2023-01-15T17:52:38.966Z,68.43
2023-01-15T17:55:26.248Z,67.57
2023-01-15T17:58:11.288Z,67.10
2023-01-15T18:00:56.174Z,67.83
2023-01-15T18:03:43.013Z,68.21
2023-01-15T18:06:11.436Z,67.15
2023-01-15T18:08:39.496Z,67.91
2023-01-15T18:11:05.939Z,68.12
2023-01-15T18:13:32.345Z,66.76
2023-01-15T18:15:58.735Z,66.23
2023-01-15T18:18:25.190Z,67.25
2023-01-15T18:20:51.550Z,67.59
2023-01-15T18:23:36.351Z,66.70
2023-01-15T18:26:33.693Z,67.39
2023-01-15T18:30:05.355Z,67.89
2023-01-15T18:32:53.538Z,67.69
2023-01-15T18:35:19.972Z,67.60
2023-01-15T18:37:46.377Z,67.57
2023-01-15T18:40:13.118Z,67.72
2023-01-15T18:42:59.324Z,67.62
2023-01-15T18:45:44.553Z,66.80
2023-01-15T18:48:11.114Z,67.13
2023-01-15T18:50:37.530Z,68.08
2023-01-15T18:53:03.917Z,67.77
2023-01-15T18:55:30.719Z,67.55
2023-01-15T18:57:57.466Z,67.30
2023-01-15T19:00:24.849Z,67.06
2023-01-15T19:02:52.251Z,67.41
2023-01-15T19:05:19.197Z,66.79
2023-01-15T19:07:46.180Z,67.41
2023-01-15T19:10:15.186Z,68.27
2023-01-15T19:12:41.824Z,67.26
2023-01-15T19:15:27.369Z,66.97
2023-01-15T19:18:19.693Z,67.52
2023-01-15T19:20:46.177Z,67.80
2023-01-15T19:23:12.562Z,66.98
2023-01-15T19:25:42.178Z,66.76
2023-01-15T19:28:11.944Z,67.03
2023-01-15T19:30:39.468Z,66.63
2023-01-15T19:33:07.320Z,65.97
2023-01-15T19:35:35.178Z,66.02
2023-01-15T19:38:01.643Z,65.22
2023-01-15T19:40:28.688Z,65.88
2023-01-15T19:43:14.138Z,67.90
2023-01-15T19:46:15.390Z,66.95
2023-01-15T19:49:00.531Z,66.78
2023-01-15T19:51:46.909Z,65.97
2023-01-15T19:54:13.410Z,66.04
2023-01-15T19:56:40.656Z,65.88
2023-01-15T19:59:07.640Z,66.38
2023-01-15T20:01:34.103Z,65.87
2023-01-15T20:04:00.639Z,64.90
2023-01-15T20:06:29.323Z,65.13
2023-01-15T20:08:55.737Z,64.86
2023-01-15T20:11:22.117Z,64.45
2023-01-15T20:13:51.365Z,66.55
2023-01-15T20:16:22.172Z,65.45
2023-01-15T20:18:49.930Z,65.13
2023-01-15T20:21:16.629Z,64.60
2023-01-15T20:23:43.360Z,64.76
2023-01-15T20:26:13.167Z,63.86
2023-01-15T20:28:42.195Z,64.98
2023-01-15T20:31:16.832Z,65.19
2023-01-15T20:33:43.230Z,66.61
2023-01-15T20:36:09.745Z,65.69
2023-01-15T20:38:36.125Z,65.11
2023-01-15T20:41:28.456Z,63.39
2023-01-15T20:44:13.679Z,64.24
2023-01-15T20:46:40.268Z,64.11
2023-01-15T20:49:25.136Z,62.77
2023-01-15T20:51:52.684Z,63.03
2023-01-15T20:54:20.402Z,62.51
2023-01-15T20:56:47.226Z,62.49
2023-01-15T20:59:13.627Z,63.20
2023-01-15T21:01:43.141Z,62.16
2023-01-15T21:04:10.598Z,63.62
2023-01-15T21:06:37.089Z,62.94
2023-01-15T21:09:03.683Z,62.68
2023-01-15T21:11:30.034Z,63.12
2023-01-15T21:13:56.452Z,63.89
2023-01-15T21:16:23.248Z,62.83
2023-01-15T21:18:50.053Z,63.48
2023-01-15T21:21:18.681Z,63.77
2023-01-15T21:23:45.833Z,63.68
2023-01-15T21:26:14.096Z,62.53
2023-01-15T21:28:40.611Z,61.98
2023-01-15T21:31:08.897Z,63.51
2023-01-15T21:33:35.931Z,62.42
2023-01-15T21:36:09.568Z,63.64
2023-01-15T21:38:36.132Z,63.51
2023-01-15T21:41:13.510Z,63.56
2023-01-15T21:43:59.256Z,62.86
2023-01-15T21:46:28.854Z,61.89
2023-01-15T21:48:56.688Z,62.06
2023-01-15T21:51:24.369Z,60.71
2023-01-15T21:53:50.851Z,61.93
2023-01-15T21:56:17.363Z,62.72
2023-01-15T21:58:43.907Z,63.35
2023-01-15T22:01:12.826Z,63.17
2023-01-15T22:03:39.406Z,62.14
2023-01-15T22:06:07.610Z,63.47
2023-01-15T22:08:34.487Z,62.73
2023-01-15T22:11:03.227Z,62.26
2023-01-15T22:13:29.671Z,61.15
2023-01-15T22:15:56.101Z,61.52
2023-01-15T22:18:26.722Z,61.08
2023-01-15T22:21:05.250Z,59.87
2023-01-15T22:23:32.753Z,60.31
2023-01-15T22:25:59.212Z,61.77
2023-01-15T22:28:25.663Z,60.21
2023-01-15T22:30:52.074Z,60.08
2023-01-15T22:33:18.533Z,60.25
2023-01-15T22:35:44.898Z,59.09
2023-01-15T22:38:11.400Z,59.92
2023-01-15T22:40:37.871Z,59.07
2023-01-15T22:43:04.264Z,58.70
2023-01-15T22:45:30.690Z,59.11
2023-01-15T22:47:57.107Z,58.86
2023-01-15T22:50:23.478Z,58.88
2023-01-15T22:52:49.931Z,58.63
2023-01-15T22:55:16.295Z,58.34
2023-01-15T22:57:42.872Z,58.91
2023-01-15T23:00:10.681Z,59.00
2023-01-15T23:03:09.304Z,58.80
2023-01-15T23:05:40.090Z,60.32
2023-01-15T23:08:07.198Z,58.73
2023-01-15T23:10:33.562Z,59.74
2023-01-15T23:12:59.978Z,59.61
2023-01-15T23:15:26.480Z,60.04
2023-01-15T23:17:52.936Z,61.03
2023-01-15T23:20:19.583Z,60.42
2023-01-15T23:22:46.068Z,61.33
2023-01-15T23:25:12.631Z,60.43
2023-01-15T23:27:38.996Z,60.68
2023-01-15T23:30:06.034Z,58.44
2023-01-15T23:32:32.451Z,56.96
2023-01-15T23:34:58.876Z,57.14
2023-01-15T23:37:25.306Z,57.72
2023-01-15T23:39:51.667Z,58.43
2023-01-15T23:42:36.868Z,58.64
2023-01-15T23:45:22.106Z,58.56
2023-01-15T23:47:48.532Z,59.77
2023-01-15T23:50:15.195Z,60.07
2023-01-15T23:52:41.599Z,59.10
2023-01-15T23:55:08.551Z,59.04
2023-01-15T23:57:35.042Z,59.28
